sensor_id;sensor_type;location;lat;lon;timestamp;P1;durP1;ratioP1;P2;durP2;ratioP2
71303;SDS011;59091;47.446;19.148;2022-10-31T00:00:54;71.35;;;29.05;;
71303;SDS011;59091;47.446;19.148;2022-10-31T00:03:20;59.67;;;25.42;;
71303;SDS011;59091;47.446;19.148;2022-10-31T00:05:46;71.30;;;26.20;;
71303;SDS011;59091;47.446;19.148;2022-10-31T00:08:13;57.17;;;25.60;;
71303;SDS011;59091;47.446;19.148;2022-10-31T00:10:40;63.15;;;26.65;;
71303;SDS011;59091;47.446;19.148;2022-10-31T00:13:06;64.40;;;26.58;;
71303;SDS011;59091;47.446;19.148;2022-10-31T00:15:36;63.60;;;26.90;;
71303;SDS011;59091;47.446;19.148;2022-10-31T00:18:03;65.30;;;25.35;;
71303;SDS011;59091;47.446;19.148;2022-10-31T00:20:29;61.58;;;26.10;;
71303;SDS011;59091;47.446;19.148;2022-10-31T00:22:58;65.35;;;26.80;;
71303;SDS011;59091;47.446;19.148;2022-10-31T00:25:24;59.65;;;25.65;;
71303;SDS011;59091;47.446;19.148;2022-10-31T00:27:50;63.45;;;25.20;;
71303;SDS011;59091;47.446;19.148;2022-10-31T00:30:16;61.58;;;24.75;;
71303;SDS011;59091;47.446;19.148;2022-10-31T00:32:41;63.22;;;26.35;;
71303;SDS011;59091;47.446;19.148;2022-10-31T00:35:07;61.75;;;25.08;;
71303;SDS011;59091;47.446;19.148;2022-10-31T00:37:32;66.90;;;24.83;;
71303;SDS011;59091;47.446;19.148;2022-10-31T00:39:57;64.30;;;25.20;;
71303;SDS011;59091;47.446;19.148;2022-10-31T00:42:23;58.22;;;23.95;;
71303;SDS011;59091;47.446;19.148;2022-10-31T00:44:48;52.60;;;22.80;;
71303;SDS011;59091;47.446;19.148;2022-10-31T00:47:13;53.95;;;21.80;;
71303;SDS011;59091;47.446;19.148;2022-10-31T00:49:39;59.75;;;24.02;;
71303;SDS011;59091;47.446;19.148;2022-10-31T00:52:04;62.25;;;24.58;;
71303;SDS011;59091;47.446;19.148;2022-10-31T00:54:30;60.35;;;23.05;;
71303;SDS011;59091;47.446;19.148;2022-10-31T00:56:56;58.22;;;23.90;;
71303;SDS011;59091;47.446;19.148;2022-10-31T00:59:21;62.80;;;23.17;;
71303;SDS011;59091;47.446;19.148;2022-10-31T01:01:47;59.08;;;23.10;;
71303;SDS011;59091;47.446;19.148;2022-10-31T01:04:12;51.92;;;21.88;;
71303;SDS011;59091;47.446;19.148;2022-10-31T01:06:38;59.60;;;22.33;;
71303;SDS011;59091;47.446;19.148;2022-10-31T01:09:03;54.45;;;21.95;;
71303;SDS011;59091;47.446;19.148;2022-10-31T01:11:28;51.20;;;21.17;;
71303;SDS011;59091;47.446;19.148;2022-10-31T01:13:54;60.35;;;21.42;;
71303;SDS011;59091;47.446;19.148;2022-10-31T01:16:20;51.75;;;21.23;;
71303;SDS011;59091;47.446;19.148;2022-10-31T01:18:47;51.22;;;21.38;;
71303;SDS011;59091;47.446;19.148;2022-10-31T01:21:15;48.65;;;19.25;;
71303;SDS011;59091;47.446;19.148;2022-10-31T01:23:54;46.50;;;18.30;;
71303;SDS011;59091;47.446;19.148;2022-10-31T01:26:21;47.92;;;19.00;;
71303;SDS011;59091;47.446;19.148;2022-10-31T01:28:53;46.97;;;17.15;;
71303;SDS011;59091;47.446;19.148;2022-10-31T01:31:20;41.03;;;17.35;;
71303;SDS011;59091;47.446;19.148;2022-10-31T01:33:48;41.22;;;17.38;;
71303;SDS011;59091;47.446;19.148;2022-10-31T01:38:44;42.08;;;18.08;;
71303;SDS011;59091;47.446;19.148;2022-10-31T01:41:11;49.10;;;19.70;;
71303;SDS011;59091;47.446;19.148;2022-10-31T01:43:42;46.55;;;18.25;;
71303;SDS011;59091;47.446;19.148;2022-10-31T01:46:34;44.20;;;20.00;;
71303;SDS011;59091;47.446;19.148;2022-10-31T01:49:04;51.60;;;19.58;;
71303;SDS011;59091;47.446;19.148;2022-10-31T01:51:35;48.55;;;19.25;;
71303;SDS011;59091;47.446;19.148;2022-10-31T01:54:06;52.63;;;19.55;;
71303;SDS011;59091;47.446;19.148;2022-10-31T01:56:34;46.85;;;19.05;;
71303;SDS011;59091;47.446;19.148;2022-10-31T01:59:04;55.20;;;19.92;;
71303;SDS011;59091;47.446;19.148;2022-10-31T02:01:32;53.22;;;20.83;;
71303;SDS011;59091;47.446;19.148;2022-10-31T02:03:57;50.00;;;20.55;;
71303;SDS011;59091;47.446;19.148;2022-10-31T02:06:44;48.63;;;19.15;;
71303;SDS011;59091;47.446;19.148;2022-10-31T02:09:16;54.90;;;19.70;;
71303;SDS011;59091;47.446;19.148;2022-10-31T02:11:48;52.95;;;20.05;;
71303;SDS011;59091;47.446;19.148;2022-10-31T02:14:16;50.90;;;20.02;;
71303;SDS011;59091;47.446;19.148;2022-10-31T02:16:42;49.60;;;19.02;;
71303;SDS011;59091;47.446;19.148;2022-10-31T02:19:08;49.40;;;18.80;;
71303;SDS011;59091;47.446;19.148;2022-10-31T02:32:46;44.13;;;17.58;;
71303;SDS011;59091;47.446;19.148;2022-10-31T02:44:44;37.08;;;16.15;;
71303;SDS011;59091;47.446;19.148;2022-10-31T02:47:15;40.30;;;17.13;;
71303;SDS011;59091;47.446;19.148;2022-10-31T02:49:45;36.70;;;16.13;;
71303;SDS011;59091;47.446;19.148;2022-10-31T02:52:18;36.92;;;16.27;;
71303;SDS011;59091;47.446;19.148;2022-10-31T02:54:54;35.80;;;16.90;;
71303;SDS011;59091;47.446;19.148;2022-10-31T02:57:21;41.33;;;16.10;;
71303;SDS011;59091;47.446;19.148;2022-10-31T03:00:03;36.42;;;15.00;;
71303;SDS011;59091;47.446;19.148;2022-10-31T03:13:05;40.45;;;16.23;;
71303;SDS011;59091;47.446;19.148;2022-10-31T03:15:53;44.65;;;17.13;;
71303;SDS011;59091;47.446;19.148;2022-10-31T03:18:37;42.05;;;18.25;;
71303;SDS011;59091;47.446;19.148;2022-10-31T03:21:14;41.58;;;18.25;;
71303;SDS011;59091;47.446;19.148;2022-10-31T03:23:45;39.60;;;17.17;;
71303;SDS011;59091;47.446;19.148;2022-10-31T03:26:13;39.55;;;18.05;;
71303;SDS011;59091;47.446;19.148;2022-10-31T03:28:46;41.80;;;17.45;;
71303;SDS011;59091;47.446;19.148;2022-10-31T03:31:16;45.40;;;18.48;;
71303;SDS011;59091;47.446;19.148;2022-10-31T03:33:43;47.90;;;18.42;;
71303;SDS011;59091;47.446;19.148;2022-10-31T03:36:11;47.47;;;18.92;;
71303;SDS011;59091;47.446;19.148;2022-10-31T03:38:39;50.50;;;18.02;;
71303;SDS011;59091;47.446;19.148;2022-10-31T03:41:07;47.80;;;18.17;;
71303;SDS011;59091;47.446;19.148;2022-10-31T03:43:38;42.42;;;18.23;;
71303;SDS011;59091;47.446;19.148;2022-10-31T03:46:08;40.83;;;17.25;;
71303;SDS011;59091;47.446;19.148;2022-10-31T03:48:34;38.78;;;16.35;;
71303;SDS011;59091;47.446;19.148;2022-10-31T03:59:10;41.08;;;17.15;;
71303;SDS011;59091;47.446;19.148;2022-10-31T04:01:42;37.22;;;15.82;;
71303;SDS011;59091;47.446;19.148;2022-10-31T04:04:12;33.95;;;15.00;;
71303;SDS011;59091;47.446;19.148;2022-10-31T04:06:40;37.10;;;14.70;;
71303;SDS011;59091;47.446;19.148;2022-10-31T04:09:08;32.55;;;15.35;;
71303;SDS011;59091;47.446;19.148;2022-10-31T04:11:36;36.60;;;14.55;;
71303;SDS011;59091;47.446;19.148;2022-10-31T04:14:05;36.63;;;15.55;;
71303;SDS011;59091;47.446;19.148;2022-10-31T04:16:32;40.13;;;15.52;;
71303;SDS011;59091;47.446;19.148;2022-10-31T04:18:57;31.77;;;14.90;;
71303;SDS011;59091;47.446;19.148;2022-10-31T04:21:26;35.63;;;14.23;;
71303;SDS011;59091;47.446;19.148;2022-10-31T04:23:53;33.50;;;14.65;;
71303;SDS011;59091;47.446;19.148;2022-10-31T04:26:19;31.38;;;14.15;;
71303;SDS011;59091;47.446;19.148;2022-10-31T04:28:44;32.88;;;14.05;;
71303;SDS011;59091;47.446;19.148;2022-10-31T04:31:10;35.15;;;14.13;;
71303;SDS011;59091;47.446;19.148;2022-10-31T04:33:36;33.28;;;14.05;;
71303;SDS011;59091;47.446;19.148;2022-10-31T04:36:02;36.38;;;14.77;;
71303;SDS011;59091;47.446;19.148;2022-10-31T04:38:29;38.45;;;14.68;;
71303;SDS011;59091;47.446;19.148;2022-10-31T04:40:55;35.40;;;14.05;;
71303;SDS011;59091;47.446;19.148;2022-10-31T04:43:20;33.55;;;14.10;;
71303;SDS011;59091;47.446;19.148;2022-10-31T04:45:45;33.17;;;13.98;;
71303;SDS011;59091;47.446;19.148;2022-10-31T04:48:11;30.27;;;13.88;;
71303;SDS011;59091;47.446;19.148;2022-10-31T04:50:37;34.15;;;13.90;;
71303;SDS011;59091;47.446;19.148;2022-10-31T04:53:03;37.25;;;14.45;;
71303;SDS011;59091;47.446;19.148;2022-10-31T04:55:28;35.33;;;14.38;;
71303;SDS011;59091;47.446;19.148;2022-10-31T04:57:53;38.97;;;14.43;;
71303;SDS011;59091;47.446;19.148;2022-10-31T05:00:20;30.50;;;13.45;;
71303;SDS011;59091;47.446;19.148;2022-10-31T05:02:50;37.17;;;14.63;;
71303;SDS011;59091;47.446;19.148;2022-10-31T05:05:18;38.53;;;14.40;;
71303;SDS011;59091;47.446;19.148;2022-10-31T05:07:45;37.00;;;15.07;;
71303;SDS011;59091;47.446;19.148;2022-10-31T05:10:12;36.70;;;15.20;;
71303;SDS011;59091;47.446;19.148;2022-10-31T05:12:46;36.70;;;15.15;;
71303;SDS011;59091;47.446;19.148;2022-10-31T05:15:13;37.40;;;14.60;;
71303;SDS011;59091;47.446;19.148;2022-10-31T05:17:38;34.97;;;14.00;;
71303;SDS011;59091;47.446;19.148;2022-10-31T05:20:04;34.90;;;14.90;;
71303;SDS011;59091;47.446;19.148;2022-10-31T05:22:30;38.88;;;14.85;;
71303;SDS011;59091;47.446;19.148;2022-10-31T05:24:55;33.70;;;13.88;;
71303;SDS011;59091;47.446;19.148;2022-10-31T05:27:21;33.05;;;14.02;;
71303;SDS011;59091;47.446;19.148;2022-10-31T05:29:46;39.03;;;14.85;;
71303;SDS011;59091;47.446;19.148;2022-10-31T05:32:11;37.30;;;15.38;;
71303;SDS011;59091;47.446;19.148;2022-10-31T05:34:37;39.55;;;15.73;;
71303;SDS011;59091;47.446;19.148;2022-10-31T05:37:02;35.58;;;14.98;;
71303;SDS011;59091;47.446;19.148;2022-10-31T05:39:27;38.53;;;15.27;;
71303;SDS011;59091;47.446;19.148;2022-10-31T05:41:53;38.03;;;14.30;;
71303;SDS011;59091;47.446;19.148;2022-10-31T05:44:18;30.52;;;14.15;;
71303;SDS011;59091;47.446;19.148;2022-10-31T05:46:45;31.55;;;13.25;;
71303;SDS011;59091;47.446;19.148;2022-10-31T05:49:11;31.98;;;13.43;;
71303;SDS011;59091;47.446;19.148;2022-10-31T05:51:36;36.83;;;15.52;;
71303;SDS011;59091;47.446;19.148;2022-10-31T05:54:02;38.92;;;14.60;;
71303;SDS011;59091;47.446;19.148;2022-10-31T05:56:27;41.53;;;15.23;;
71303;SDS011;59091;47.446;19.148;2022-10-31T05:58:53;38.90;;;15.50;;
71303;SDS011;59091;47.446;19.148;2022-10-31T06:01:18;35.85;;;15.05;;
71303;SDS011;59091;47.446;19.148;2022-10-31T06:03:43;39.03;;;15.38;;
71303;SDS011;59091;47.446;19.148;2022-10-31T06:06:09;33.97;;;14.77;;
71303;SDS011;59091;47.446;19.148;2022-10-31T06:08:34;36.33;;;15.55;;
71303;SDS011;59091;47.446;19.148;2022-10-31T06:11:00;38.20;;;15.07;;
71303;SDS011;59091;47.446;19.148;2022-10-31T06:13:25;42.95;;;16.38;;
71303;SDS011;59091;47.446;19.148;2022-10-31T06:15:51;36.55;;;14.90;;
71303;SDS011;59091;47.446;19.148;2022-10-31T06:18:16;44.22;;;15.38;;
71303;SDS011;59091;47.446;19.148;2022-10-31T06:20:41;37.95;;;15.57;;
71303;SDS011;59091;47.446;19.148;2022-10-31T06:23:07;43.10;;;16.13;;
71303;SDS011;59091;47.446;19.148;2022-10-31T06:25:32;37.08;;;15.07;;
71303;SDS011;59091;47.446;19.148;2022-10-31T06:27:58;40.50;;;15.90;;
71303;SDS011;59091;47.446;19.148;2022-10-31T06:30:23;37.42;;;15.07;;
71303;SDS011;59091;47.446;19.148;2022-10-31T06:32:49;41.75;;;16.60;;
71303;SDS011;59091;47.446;19.148;2022-10-31T06:35:15;45.90;;;18.17;;
71303;SDS011;59091;47.446;19.148;2022-10-31T06:37:40;47.33;;;17.85;;
71303;SDS011;59091;47.446;19.148;2022-10-31T06:40:06;49.35;;;16.95;;
71303;SDS011;59091;47.446;19.148;2022-10-31T06:42:31;52.15;;;18.20;;
71303;SDS011;59091;47.446;19.148;2022-10-31T06:44:57;52.15;;;20.17;;
71303;SDS011;59091;47.446;19.148;2022-10-31T06:47:22;57.30;;;19.50;;
71303;SDS011;59091;47.446;19.148;2022-10-31T06:49:47;54.33;;;20.10;;
71303;SDS011;59091;47.446;19.148;2022-10-31T06:52:13;59.15;;;20.58;;
71303;SDS011;59091;47.446;19.148;2022-10-31T06:54:38;57.05;;;20.15;;
71303;SDS011;59091;47.446;19.148;2022-10-31T06:57:04;58.00;;;19.55;;
71303;SDS011;59091;47.446;19.148;2022-10-31T06:59:29;51.00;;;18.80;;
71303;SDS011;59091;47.446;19.148;2022-10-31T07:01:54;49.75;;;18.63;;
71303;SDS011;59091;47.446;19.148;2022-10-31T07:04:20;53.35;;;19.05;;
71303;SDS011;59091;47.446;19.148;2022-10-31T07:06:46;48.78;;;18.15;;
71303;SDS011;59091;47.446;19.148;2022-10-31T07:09:11;52.75;;;18.45;;
71303;SDS011;59091;47.446;19.148;2022-10-31T07:11:36;48.53;;;17.67;;
71303;SDS011;59091;47.446;19.148;2022-10-31T07:14:02;46.90;;;18.52;;
71303;SDS011;59091;47.446;19.148;2022-10-31T07:16:27;49.95;;;18.20;;
71303;SDS011;59091;47.446;19.148;2022-10-31T07:18:52;47.80;;;17.33;;
71303;SDS011;59091;47.446;19.148;2022-10-31T07:21:18;51.28;;;19.08;;
71303;SDS011;59091;47.446;19.148;2022-10-31T07:23:43;52.63;;;18.02;;
71303;SDS011;59091;47.446;19.148;2022-10-31T07:26:09;50.80;;;17.60;;
71303;SDS011;59091;47.446;19.148;2022-10-31T07:28:34;45.70;;;17.95;;
71303;SDS011;59091;47.446;19.148;2022-10-31T07:31:00;44.65;;;17.38;;
71303;SDS011;59091;47.446;19.148;2022-10-31T07:33:25;44.25;;;16.98;;
71303;SDS011;59091;47.446;19.148;2022-10-31T07:35:51;43.47;;;17.00;;
71303;SDS011;59091;47.446;19.148;2022-10-31T07:38:16;42.58;;;15.95;;
71303;SDS011;59091;47.446;19.148;2022-10-31T07:40:42;45.42;;;17.10;;
71303;SDS011;59091;47.446;19.148;2022-10-31T07:43:08;39.28;;;15.40;;
71303;SDS011;59091;47.446;19.148;2022-10-31T07:45:35;43.42;;;16.52;;
71303;SDS011;59091;47.446;19.148;2022-10-31T07:48:00;42.25;;;17.27;;
71303;SDS011;59091;47.446;19.148;2022-10-31T07:50:28;50.13;;;17.67;;
71303;SDS011;59091;47.446;19.148;2022-10-31T07:53:01;37.50;;;15.77;;
71303;SDS011;59091;47.446;19.148;2022-10-31T07:55:30;39.97;;;15.30;;
71303;SDS011;59091;47.446;19.148;2022-10-31T07:58:00;39.50;;;15.60;;
71303;SDS011;59091;47.446;19.148;2022-10-31T08:00:27;42.22;;;15.70;;
71303;SDS011;59091;47.446;19.148;2022-10-31T08:03:03;35.40;;;14.85;;
71303;SDS011;59091;47.446;19.148;2022-10-31T08:05:30;41.88;;;14.55;;
71303;SDS011;59091;47.446;19.148;2022-10-31T08:07:56;41.00;;;16.52;;
71303;SDS011;59091;47.446;19.148;2022-10-31T08:10:22;38.85;;;15.27;;
71303;SDS011;59091;47.446;19.148;2022-10-31T08:12:55;41.97;;;16.15;;
71303;SDS011;59091;47.446;19.148;2022-10-31T08:15:25;42.47;;;15.23;;
71303;SDS011;59091;47.446;19.148;2022-10-31T08:17:51;41.97;;;15.15;;
71303;SDS011;59091;47.446;19.148;2022-10-31T08:20:16;38.92;;;14.95;;
71303;SDS011;59091;47.446;19.148;2022-10-31T08:22:42;37.35;;;15.35;;
71303;SDS011;59091;47.446;19.148;2022-10-31T08:25:07;36.08;;;15.43;;
71303;SDS011;59091;47.446;19.148;2022-10-31T08:27:33;34.15;;;13.88;;
71303;SDS011;59091;47.446;19.148;2022-10-31T08:29:59;34.17;;;13.77;;
71303;SDS011;59091;47.446;19.148;2022-10-31T08:32:24;33.55;;;13.90;;
71303;SDS011;59091;47.446;19.148;2022-10-31T08:34:50;32.47;;;13.90;;
71303;SDS011;59091;47.446;19.148;2022-10-31T08:37:15;35.33;;;14.75;;
71303;SDS011;59091;47.446;19.148;2022-10-31T08:39:45;28.77;;;11.93;;
71303;SDS011;59091;47.446;19.148;2022-10-31T08:42:11;35.60;;;14.10;;
71303;SDS011;59091;47.446;19.148;2022-10-31T08:44:36;33.78;;;13.27;;
71303;SDS011;59091;47.446;19.148;2022-10-31T08:47:02;37.70;;;15.80;;
71303;SDS011;59091;47.446;19.148;2022-10-31T08:49:27;39.65;;;15.02;;
71303;SDS011;59091;47.446;19.148;2022-10-31T08:51:52;39.90;;;15.23;;
71303;SDS011;59091;47.446;19.148;2022-10-31T08:54:18;38.95;;;15.05;;
71303;SDS011;59091;47.446;19.148;2022-10-31T08:56:43;33.80;;;13.45;;
71303;SDS011;59091;47.446;19.148;2022-10-31T08:59:08;34.13;;;13.52;;
71303;SDS011;59091;47.446;19.148;2022-10-31T09:01:34;31.27;;;13.50;;
71303;SDS011;59091;47.446;19.148;2022-10-31T09:03:59;31.08;;;13.35;;
71303;SDS011;59091;47.446;19.148;2022-10-31T09:06:24;28.55;;;12.85;;
71303;SDS011;59091;47.446;19.148;2022-10-31T09:08:50;27.27;;;11.35;;
71303;SDS011;59091;47.446;19.148;2022-10-31T09:11:15;28.05;;;12.38;;
71303;SDS011;59091;47.446;19.148;2022-10-31T09:13:41;28.73;;;13.60;;
71303;SDS011;59091;47.446;19.148;2022-10-31T09:16:06;34.33;;;13.52;;
71303;SDS011;59091;47.446;19.148;2022-10-31T09:18:32;28.38;;;13.55;;
71303;SDS011;59091;47.446;19.148;2022-10-31T09:20:58;32.38;;;13.63;;
71303;SDS011;59091;47.446;19.148;2022-10-31T09:23:24;29.88;;;13.77;;
71303;SDS011;59091;47.446;19.148;2022-10-31T09:25:50;29.08;;;13.10;;
71303;SDS011;59091;47.446;19.148;2022-10-31T09:28:21;27.17;;;12.90;;
71303;SDS011;59091;47.446;19.148;2022-10-31T09:30:48;30.58;;;14.02;;
71303;SDS011;59091;47.446;19.148;2022-10-31T09:33:15;38.17;;;13.05;;
71303;SDS011;59091;47.446;19.148;2022-10-31T09:35:41;28.20;;;12.98;;
71303;SDS011;59091;47.446;19.148;2022-10-31T09:38:13;29.85;;;12.48;;
71303;SDS011;59091;47.446;19.148;2022-10-31T09:40:41;31.65;;;13.43;;
71303;SDS011;59091;47.446;19.148;2022-10-31T09:51:32;28.98;;;11.77;;
71303;SDS011;59091;47.446;19.148;2022-10-31T09:54:17;21.35;;;11.23;;
71303;SDS011;59091;47.446;19.148;2022-10-31T09:56:45;22.25;;;11.43;;
71303;SDS011;59091;47.446;19.148;2022-10-31T09:59:12;27.20;;;12.02;;
71303;SDS011;59091;47.446;19.148;2022-10-31T10:01:55;26.23;;;11.20;;
71303;SDS011;59091;47.446;19.148;2022-10-31T10:04:44;26.63;;;11.13;;
71303;SDS011;59091;47.446;19.148;2022-10-31T10:07:24;27.67;;;11.73;;
71303;SDS011;59091;47.446;19.148;2022-10-31T10:26:46;26.33;;;13.10;;
71303;SDS011;59091;47.446;19.148;2022-10-31T10:32:12;24.88;;;11.82;;
71303;SDS011;59091;47.446;19.148;2022-10-31T10:34:47;33.13;;;15.55;;
71303;SDS011;59091;47.446;19.148;2022-10-31T10:37:50;24.35;;;12.52;;
71303;SDS011;59091;47.446;19.148;2022-10-31T10:40:13;27.00;;;13.20;;
71303;SDS011;59091;47.446;19.148;2022-10-31T10:42:50;26.58;;;12.90;;
71303;SDS011;59091;47.446;19.148;2022-10-31T10:45:42;27.60;;;12.38;;
71303;SDS011;59091;47.446;19.148;2022-10-31T10:48:50;27.88;;;12.35;;
71303;SDS011;59091;47.446;19.148;2022-10-31T10:54:11;22.38;;;10.77;;
71303;SDS011;59091;47.446;19.148;2022-10-31T10:59:32;23.67;;;12.15;;
71303;SDS011;59091;47.446;19.148;2022-10-31T11:01:57;25.63;;;12.20;;
71303;SDS011;59091;47.446;19.148;2022-10-31T11:04:26;19.98;;;11.32;;
71303;SDS011;59091;47.446;19.148;2022-10-31T11:07:03;19.52;;;11.15;;
71303;SDS011;59091;47.446;19.148;2022-10-31T11:09:34;24.58;;;12.52;;
71303;SDS011;59091;47.446;19.148;2022-10-31T11:12:05;22.73;;;11.30;;
71303;SDS011;59091;47.446;19.148;2022-10-31T11:14:35;24.73;;;11.55;;
71303;SDS011;59091;47.446;19.148;2022-10-31T11:17:09;24.10;;;11.30;;
71303;SDS011;59091;47.446;19.148;2022-10-31T11:22:08;17.17;;;10.18;;
71303;SDS011;59091;47.446;19.148;2022-10-31T11:24:41;20.80;;;10.80;;
71303;SDS011;59091;47.446;19.148;2022-10-31T11:27:19;22.15;;;10.68;;
71303;SDS011;59091;47.446;19.148;2022-10-31T11:29:46;22.90;;;10.40;;
71303;SDS011;59091;47.446;19.148;2022-10-31T11:32:19;23.10;;;11.90;;
71303;SDS011;59091;47.446;19.148;2022-10-31T11:34:58;19.25;;;11.20;;
71303;SDS011;59091;47.446;19.148;2022-10-31T11:37:29;20.48;;;11.50;;
71303;SDS011;59091;47.446;19.148;2022-10-31T11:40:00;23.95;;;11.27;;
71303;SDS011;59091;47.446;19.148;2022-10-31T11:42:30;19.27;;;11.07;;
71303;SDS011;59091;47.446;19.148;2022-10-31T11:45:02;21.73;;;11.73;;
71303;SDS011;59091;47.446;19.148;2022-10-31T11:47:33;21.52;;;10.70;;
71303;SDS011;59091;47.446;19.148;2022-10-31T11:50:00;20.77;;;10.73;;
71303;SDS011;59091;47.446;19.148;2022-10-31T11:52:33;22.35;;;10.70;;
71303;SDS011;59091;47.446;19.148;2022-10-31T11:57:43;18.88;;;11.00;;
71303;SDS011;59091;47.446;19.148;2022-10-31T12:00:27;21.35;;;11.05;;
71303;SDS011;59091;47.446;19.148;2022-10-31T12:05:41;19.23;;;10.13;;
71303;SDS011;59091;47.446;19.148;2022-10-31T12:08:10;17.35;;;10.23;;
71303;SDS011;59091;47.446;19.148;2022-10-31T12:10:40;18.58;;;9.75;;
71303;SDS011;59091;47.446;19.148;2022-10-31T12:16:19;19.42;;;10.82;;
71303;SDS011;59091;47.446;19.148;2022-10-31T12:19:00;20.85;;;10.75;;
71303;SDS011;59091;47.446;19.148;2022-10-31T12:30:15;21.77;;;10.13;;
71303;SDS011;59091;47.446;19.148;2022-10-31T12:46:32;16.67;;;9.32;;
71303;SDS011;59091;47.446;19.148;2022-10-31T12:49:27;17.42;;;9.15;;
71303;SDS011;59091;47.446;19.148;2022-10-31T13:00:18;20.98;;;10.30;;
71303;SDS011;59091;47.446;19.148;2022-10-31T13:05:29;18.00;;;10.00;;
71303;SDS011;59091;47.446;19.148;2022-10-31T13:08:00;20.42;;;10.18;;
71303;SDS011;59091;47.446;19.148;2022-10-31T13:13:07;17.58;;;9.88;;
71303;SDS011;59091;47.446;19.148;2022-10-31T13:15:48;16.80;;;9.98;;
71303;SDS011;59091;47.446;19.148;2022-10-31T13:18:23;19.05;;;10.30;;
71303;SDS011;59091;47.446;19.148;2022-10-31T13:20:53;21.17;;;9.77;;
71303;SDS011;59091;47.446;19.148;2022-10-31T13:23:29;20.73;;;10.40;;
71303;SDS011;59091;47.446;19.148;2022-10-31T13:25:58;20.50;;;9.65;;
71303;SDS011;59091;47.446;19.148;2022-10-31T13:30:53;18.17;;;9.25;;
71303;SDS011;59091;47.446;19.148;2022-10-31T13:36:24;21.50;;;9.85;;
71303;SDS011;59091;47.446;19.148;2022-10-31T13:39:22;17.92;;;9.75;;
71303;SDS011;59091;47.446;19.148;2022-10-31T13:44:55;22.55;;;12.18;;
71303;SDS011;59091;47.446;19.148;2022-10-31T13:47:31;27.05;;;12.60;;
71303;SDS011;59091;47.446;19.148;2022-10-31T13:50:18;23.30;;;12.43;;
71303;SDS011;59091;47.446;19.148;2022-10-31T13:52:46;27.20;;;13.27;;
71303;SDS011;59091;47.446;19.148;2022-10-31T13:58:27;22.60;;;12.23;;
71303;SDS011;59091;47.446;19.148;2022-10-31T14:03:36;24.30;;;12.55;;
71303;SDS011;59091;47.446;19.148;2022-10-31T14:06:02;28.23;;;13.52;;
71303;SDS011;59091;47.446;19.148;2022-10-31T14:08:29;27.35;;;12.80;;
71303;SDS011;59091;47.446;19.148;2022-10-31T14:10:59;28.05;;;13.45;;
71303;SDS011;59091;47.446;19.148;2022-10-31T14:16:01;29.23;;;15.07;;
71303;SDS011;59091;47.446;19.148;2022-10-31T14:18:34;29.15;;;15.00;;
71303;SDS011;59091;47.446;19.148;2022-10-31T14:23:50;31.65;;;16.23;;
71303;SDS011;59091;47.446;19.148;2022-10-31T14:28:53;41.80;;;16.33;;
71303;SDS011;59091;47.446;19.148;2022-10-31T14:31:36;29.92;;;15.00;;
71303;SDS011;59091;47.446;19.148;2022-10-31T14:39:31;31.50;;;15.45;;
71303;SDS011;59091;47.446;19.148;2022-10-31T14:44:50;33.75;;;15.57;;
71303;SDS011;59091;47.446;19.148;2022-10-31T14:47:43;28.35;;;14.65;;
71303;SDS011;59091;47.446;19.148;2022-10-31T14:52:59;34.05;;;13.93;;
71303;SDS011;59091;47.446;19.148;2022-10-31T14:55:26;26.00;;;13.40;;
71303;SDS011;59091;47.446;19.148;2022-10-31T14:57:54;28.42;;;13.98;;
71303;SDS011;59091;47.446;19.148;2022-10-31T15:00:24;23.20;;;12.93;;
71303;SDS011;59091;47.446;19.148;2022-10-31T15:03:11;27.73;;;13.05;;
71303;SDS011;59091;47.446;19.148;2022-10-31T15:05:42;27.67;;;13.63;;
71303;SDS011;59091;47.446;19.148;2022-10-31T15:08:31;30.27;;;16.50;;
71303;SDS011;59091;47.446;19.148;2022-10-31T15:11:06;29.85;;;16.05;;
71303;SDS011;59091;47.446;19.148;2022-10-31T15:13:40;33.58;;;16.70;;
71303;SDS011;59091;47.446;19.148;2022-10-31T15:16:07;41.10;;;17.42;;
71303;SDS011;59091;47.446;19.148;2022-10-31T15:18:36;44.47;;;19.77;;
71303;SDS011;59091;47.446;19.148;2022-10-31T15:23:35;30.15;;;15.65;;
71303;SDS011;59091;47.446;19.148;2022-10-31T15:26:01;41.88;;;18.17;;
71303;SDS011;59091;47.446;19.148;2022-10-31T15:28:28;44.47;;;21.40;;
71303;SDS011;59091;47.446;19.148;2022-10-31T15:30:56;45.55;;;21.85;;
71303;SDS011;59091;47.446;19.148;2022-10-31T15:35:57;43.25;;;17.23;;
71303;SDS011;59091;47.446;19.148;2022-10-31T15:38:24;36.50;;;14.98;;
71303;SDS011;59091;47.446;19.148;2022-10-31T15:40:51;27.50;;;14.40;;
71303;SDS011;59091;47.446;19.148;2022-10-31T15:43:19;26.52;;;13.57;;
71303;SDS011;59091;47.446;19.148;2022-10-31T15:45:44;31.65;;;14.90;;
71303;SDS011;59091;47.446;19.148;2022-10-31T15:48:22;31.95;;;14.93;;
71303;SDS011;59091;47.446;19.148;2022-10-31T15:50:50;35.65;;;15.48;;
71303;SDS011;59091;47.446;19.148;2022-10-31T15:53:26;36.95;;;15.27;;
71303;SDS011;59091;47.446;19.148;2022-10-31T15:55:59;40.38;;;16.92;;
71303;SDS011;59091;47.446;19.148;2022-10-31T15:58:28;32.88;;;15.95;;
71303;SDS011;59091;47.446;19.148;2022-10-31T16:00:58;40.50;;;16.25;;
71303;SDS011;59091;47.446;19.148;2022-10-31T16:03:27;39.22;;;18.00;;
71303;SDS011;59091;47.446;19.148;2022-10-31T16:05:57;39.22;;;16.83;;
71303;SDS011;59091;47.446;19.148;2022-10-31T16:13:32;39.85;;;17.63;;
71303;SDS011;59091;47.446;19.148;2022-10-31T16:16:01;38.67;;;18.30;;
71303;SDS011;59091;47.446;19.148;2022-10-31T16:18:29;38.88;;;17.23;;
71303;SDS011;59091;47.446;19.148;2022-10-31T16:20:59;42.72;;;17.92;;
71303;SDS011;59091;47.446;19.148;2022-10-31T16:23:25;45.05;;;18.65;;
71303;SDS011;59091;47.446;19.148;2022-10-31T16:25:52;38.55;;;18.35;;
71303;SDS011;59091;47.446;19.148;2022-10-31T16:28:25;38.13;;;18.13;;
71303;SDS011;59091;47.446;19.148;2022-10-31T16:30:52;37.17;;;17.75;;
71303;SDS011;59091;47.446;19.148;2022-10-31T16:33:26;29.60;;;15.27;;
71303;SDS011;59091;47.446;19.148;2022-10-31T16:35:58;34.38;;;15.93;;
71303;SDS011;59091;47.446;19.148;2022-10-31T16:38:24;40.88;;;16.90;;
71303;SDS011;59091;47.446;19.148;2022-10-31T16:40:50;40.45;;;16.25;;
71303;SDS011;59091;47.446;19.148;2022-10-31T16:43:17;36.15;;;16.05;;
71303;SDS011;59091;47.446;19.148;2022-10-31T16:45:44;36.05;;;14.85;;
71303;SDS011;59091;47.446;19.148;2022-10-31T16:48:20;45.65;;;16.17;;
71303;SDS011;59091;47.446;19.148;2022-10-31T16:50:48;40.65;;;15.35;;
71303;SDS011;59091;47.446;19.148;2022-10-31T16:53:15;35.00;;;14.52;;
71303;SDS011;59091;47.446;19.148;2022-10-31T16:55:43;37.67;;;15.68;;
71303;SDS011;59091;47.446;19.148;2022-10-31T16:58:15;36.45;;;15.63;;
71303;SDS011;59091;47.446;19.148;2022-10-31T17:00:48;41.45;;;14.80;;
71303;SDS011;59091;47.446;19.148;2022-10-31T17:03:14;37.60;;;15.35;;
71303;SDS011;59091;47.446;19.148;2022-10-31T17:05:40;42.70;;;15.60;;